createdAt,value
2019-03-11T00:00:32.302Z,99664.00
2019-03-11T00:11:16.055Z,99659.00
2019-03-11T00:21:59.577Z,99640.00
2019-03-11T00:32:43.429Z,99640.00
2019-03-11T00:43:29.584Z,99638.00
2019-03-11T00:54:08.014Z,99626.00
2019-03-11T01:04:51.386Z,99643.00
2019-03-11T01:15:37.271Z,99751.00
2019-03-11T01:26:21.996Z,99915.00
2019-03-11T01:37:06.931Z,99931.00
2019-03-11T01:47:51.958Z,99880.00
2019-03-11T01:58:38.193Z,99874.00
2019-03-11T02:09:23.757Z,99851.00
2019-03-11T02:20:00.569Z,99821.00
2019-03-11T02:30:46.901Z,99817.00
2019-03-11T02:41:18.464Z,99863.00
2019-03-11T02:52:00.051Z,99966.00
2019-03-11T03:02:46.259Z,99988.00
2019-03-11T03:13:32.306Z,99983.00
2019-03-11T03:24:16.498Z,99979.00
2019-03-11T03:35:00.800Z,99959.00
2019-03-11T03:45:45.156Z,99960.00
2019-03-11T03:56:31.028Z,99942.00
2019-03-11T04:07:16.870Z,99923.00
2019-03-11T04:18:02.333Z,99888.00
2019-03-11T04:28:47.541Z,99899.00
2019-03-11T04:39:29.733Z,99894.00
2019-03-11T04:50:15.870Z,99884.00
2019-03-11T05:00:53.150Z,99892.00
2019-03-11T05:11:32.925Z,99886.00
2019-03-11T05:22:10.127Z,99920.00
2019-03-11T05:32:56.922Z,99951.00
2019-03-11T05:43:33.801Z,100008.00
2019-03-11T05:54:16.919Z,100036.00
2019-03-11T06:04:55.372Z,100091.00
2019-03-11T06:15:41.833Z,100121.00
2019-03-11T06:26:18.475Z,100154.00
2019-03-11T06:37:03.765Z,100141.00
2019-03-11T06:47:48.856Z,100115.00
2019-03-11T06:58:32.909Z,100104.00
2019-03-11T07:09:10.665Z,100080.00
2019-03-11T07:19:55.126Z,100036.00
2019-03-11T07:30:40.843Z,100027.00
2019-03-11T07:41:24.889Z,100113.00
2019-03-11T07:52:07.572Z,100240.00
2019-03-11T08:02:52.692Z,100255.00
2019-03-11T08:13:38.974Z,100249.00
2019-03-11T08:24:16.878Z,100167.00
2019-03-11T08:35:00.414Z,100138.00
2019-03-11T08:45:46.698Z,100121.00
2019-03-11T08:56:30.198Z,100160.00
2019-03-11T09:07:14.678Z,100215.00
2019-03-11T09:18:01.101Z,100215.00
2019-03-11T09:28:33.539Z,100241.00
2019-03-11T09:39:18.806Z,100178.00
2019-03-11T09:50:05.677Z,100132.00
2019-03-11T10:00:52.201Z,100059.00
2019-03-11T10:11:37.647Z,99943.00
2019-03-11T10:22:22.041Z,99889.00
2019-03-11T10:33:07.496Z,99856.00
2019-03-11T10:43:53.976Z,99838.00
2019-03-11T10:54:41.055Z,99764.00
2019-03-11T11:05:25.552Z,99728.00
2019-03-11T11:16:11.726Z,99681.00
2019-03-11T11:26:55.924Z,99751.00
2019-03-11T11:37:41.946Z,99671.00
2019-03-11T11:48:25.283Z,99675.00
2019-03-11T11:59:05.142Z,99612.00
2019-03-11T12:09:44.698Z,99580.00
2019-03-11T12:20:29.620Z,99617.00
2019-03-11T12:31:13.652Z,99654.00
2019-03-11T12:41:58.172Z,99634.00
2019-03-11T12:52:42.903Z,99585.00
2019-03-11T13:03:29.139Z,99534.00
2019-03-11T13:14:13.948Z,99490.00
2019-03-11T13:24:58.721Z,99539.00
2019-03-11T13:35:42.721Z,99654.00
2019-03-11T13:46:28.719Z,99661.00
2019-03-11T13:57:13.719Z,99573.00
2019-03-11T14:08:01.682Z,99501.00
2019-03-11T14:18:46.049Z,99563.00
2019-03-11T14:29:29.480Z,99677.00
2019-03-11T14:40:14.903Z,99619.00
2019-03-11T14:50:58.088Z,99599.00
2019-03-11T15:01:43.124Z,99594.00
2019-03-11T15:12:26.749Z,99635.00
2019-03-11T15:23:20.321Z,99680.00
2019-03-11T15:33:57.384Z,99619.00
2019-03-11T15:44:35.308Z,99633.00
2019-03-11T15:55:18.918Z,99614.00
2019-03-11T16:06:03.413Z,99663.00
2019-03-11T16:16:48.393Z,99705.00
2019-03-11T16:27:33.899Z,99736.00
2019-03-11T16:38:19.882Z,99782.00
2019-03-11T16:49:01.574Z,99840.00
2019-03-11T16:59:47.389Z,99867.00
2019-03-11T17:10:30.858Z,99998.00
2019-03-11T17:21:15.058Z,100075.00
2019-03-11T17:32:00.881Z,100102.00
2019-03-11T17:42:45.484Z,100136.00
2019-03-11T17:53:30.512Z,100140.00
2019-03-11T18:04:14.595Z,100156.00
2019-03-11T18:14:49.711Z,100188.00
2019-03-11T18:25:30.403Z,100206.00
2019-03-11T18:36:12.592Z,100230.00
2019-03-11T18:46:58.870Z,100257.00
2019-03-11T18:57:44.671Z,100296.00
2019-03-11T19:08:19.002Z,100313.00
2019-03-11T19:19:04.604Z,100316.00
2019-03-11T19:29:49.519Z,100355.00
2019-03-11T19:40:35.813Z,100387.00
2019-03-11T19:51:20.910Z,100420.00
2019-03-11T20:02:05.086Z,100445.00
2019-03-11T20:12:42.734Z,100451.00
2019-03-11T20:23:28.710Z,100467.00
2019-03-11T20:34:14.491Z,100491.00
2019-03-11T20:44:59.019Z,100515.00
2019-03-11T20:55:44.646Z,100546.00
2019-03-11T21:06:29.954Z,100562.00
2019-03-11T21:17:25.312Z,100562.00
2019-03-11T21:27:51.236Z,100578.00
2019-03-11T21:38:36.123Z,100609.00
2019-03-11T21:49:21.403Z,100660.00
2019-03-11T21:59:56.996Z,100681.00
2019-03-11T22:10:41.257Z,100711.00
2019-03-11T22:21:28.013Z,100736.00
2019-03-11T22:32:13.594Z,100758.00
2019-03-11T22:42:58.981Z,100800.00
2019-03-11T22:53:44.375Z,100823.00
2019-03-11T23:04:27.727Z,100904.00
2019-03-11T23:15:13.716Z,100904.00
2019-03-11T23:25:56.722Z,100906.00
2019-03-11T23:36:41.093Z,100936.00
2019-03-11T23:47:22.189Z,100903.00
2019-03-11T23:58:06.449Z,100878.00
